Buford, OH (45110)

2:37 PM EDT on October 20, 2014 (GMT -0400)
Hillsboro | Change Station
CLOSE
Current Station
Personal Weather Station
Location: Hillsboro, OH
Elevation: 1102 ft
Nearby Weather Stations

Elev 1102 ft 39.21 °N, 83.60 °W | Updated 40 seconds ago

Partly Cloudy
Partly Cloudy
62.8 °F
Feels Like 62.8 °F
N
10.4
Wind Variable Wind from North
Gusts 10.4 mph

Today
High -- | Low -- °F
--% Chance of Precip.
Yesterday
High -- | Low -- °F
Precip. -- in
7:49 AM 6:48 PM
Waning Crescent, 9% visible
Pressure 29.89 in
Visibility 10.0 miles
Clouds Scattered Clouds 2700 ft
Mostly Cloudy 8500 ft
Overcast 9000 ft
Dew Point 40 °F
Humidity 44%
Rainfall 0.00 in
Snow Depth Not available.
UV 1 out of 12
Pollen 1.40 out of 12
Air Quality Not available.
Flu Activity Sporadic
METAR KI69 201814Z AUTO 21010G18KT 176V256 10SM SCT027 BKN085 OVC090 16/08 A2989 RMK AO1

More Conditions Fewer Conditions

Pressure 29.89 in
Visibility 10.0 miles
Clouds Scattered Clouds 2700 ft
Mostly Cloudy 8500 ft
Overcast 9000 ft
Dew Point 40 °F
Humidity 44%
Rainfall 0.00 in
Snow Depth Not available.
UV 1 out of 12
Pollen 1.40 out of 12
Air Quality Not available.
Flu Activity Sporadic
METAR KI69 201814Z AUTO 21010G18KT 176V256 10SM SCT027 BKN085 OVC090 16/08 A2989 RMK AO1

More Conditions Fewer Conditions

10-Day Weather Forecast

Almanac

Astronomy

Oct. 20, 2014 Rise Set
Actual Time 7:49 AM EDT 6:48 PM EDT
Civil Twilight 7:21 AM EDT 7:15 PM EDT
Nautical Twilight 6:50 AM EDT 7:46 PM EDT
Astronomical Twilight 6:19 AM EDT 8:17 PM EDT
Moon 4:37 AM EDT 5:09 PM EDT
Length of Visible Light 11h 53m
Length of Day
10h 59m
Waning Crescent, 9% of the Moon is Illuminated
Today
Waning Crescent
Oct 23
New
Oct 30
First Quarter
Nov 6
Full
Nov 14
Last Quarter

Today's Extremes

State Highs State Lows

Community

WunderPhotos

Upload Photos

1,763,460 photos uploaded!

Nearby

Snow Depth

Station Depth Elevation
No new snow has been reported.

Earthquake Activity

City Distance Mag. Time & Date
No recent earthquake activity has been reported nearby.
Minimum magnitude displayed is 2.5.

Coastal Water Temperatures

Place Temperature
No Stations Reporting

Nearby Weather Stations